createdAt,value
2023-01-08T05:04:10.223Z,100380.47
2023-01-08T05:37:47.219Z,100368.34
2023-01-08T05:42:48.114Z,100363.68
2023-01-08T07:23:39.545Z,100320.88
2023-01-08T07:26:24.806Z,100322.17
2023-01-08T07:28:58.950Z,100314.98
2023-01-08T07:31:51.838Z,100303.17
2023-01-08T07:34:55.882Z,100303.79
2023-01-08T08:02:30.018Z,100270.17
2023-01-08T08:04:59.837Z,100271.25
2023-01-08T08:09:13.914Z,100270.08
2023-01-08T08:11:48.416Z,100267.37
2023-01-08T08:14:18.470Z,100269.39
2023-01-08T08:17:39.101Z,100265.52
2023-01-08T08:23:30.916Z,100269.26
2023-01-08T08:25:04.929Z,100277.84
2023-01-08T10:06:13.130Z,100202.60
2023-01-08T12:54:33.053Z,100058.34
2023-01-08T13:13:33.619Z,100048.11
2023-01-08T13:16:46.366Z,100055.52
2023-01-08T14:31:00.535Z,100012.54
2023-01-08T14:33:38.126Z,100013.70
2023-01-08T14:36:07.758Z,100013.38
2023-01-08T14:38:34.960Z,100008.56
2023-01-08T14:41:11.147Z,100003.61
2023-01-08T14:43:49.796Z,100003.55
2023-01-08T14:46:26.268Z,99996.05
2023-01-08T14:48:55.669Z,99995.89
2023-01-08T14:51:29.166Z,99991.88
2023-01-08T14:54:05.415Z,99995.11
2023-01-08T14:56:35.158Z,99993.53
2023-01-08T14:59:15.176Z,99992.55
2023-01-08T15:01:42.741Z,99999.97
2023-01-08T15:04:18.886Z,100002.35
2023-01-08T15:06:47.148Z,99989.79
2023-01-08T15:13:40.322Z,99968.82
2023-01-08T15:16:16.701Z,99969.91
2023-01-08T15:18:54.595Z,99974.79
2023-01-08T15:21:23.672Z,99969.00
2023-01-08T15:23:55.502Z,99966.14
2023-01-08T15:26:41.568Z,99964.44
2023-01-08T15:29:29.651Z,99959.45
2023-01-08T15:58:44.558Z,99955.30
2023-01-08T16:04:24.528Z,99960.57
2023-01-08T16:06:34.713Z,99943.50
2023-01-08T16:17:32.057Z,99912.87
2023-01-08T16:22:06.913Z,99913.77
2023-01-08T16:29:31.583Z,99907.06
2023-01-08T16:50:42.014Z,99879.10
2023-01-08T17:05:15.411Z,99901.67
2023-01-08T17:07:44.297Z,99906.88
2023-01-08T17:10:13.953Z,99907.89
2023-01-08T17:12:41.317Z,99904.18
2023-01-08T17:15:09.669Z,99902.31
2023-01-08T17:17:38.362Z,99898.08
2023-01-08T17:20:06.275Z,99893.61
2023-01-08T17:22:34.248Z,99890.70
2023-01-08T17:25:01.720Z,99890.30
2023-01-08T17:27:29.075Z,99890.40
2023-01-08T17:29:56.214Z,99885.83
2023-01-08T17:32:23.594Z,99881.70
2023-01-08T17:34:50.952Z,99876.61
2023-01-08T17:37:18.157Z,99872.98
2023-01-08T17:39:45.446Z,99870.94
2023-01-08T17:42:26.427Z,99865.71
2023-01-08T17:44:55.721Z,99865.98
2023-01-08T17:47:24.578Z,99874.55
2023-01-08T17:49:54.110Z,99878.89
2023-01-08T17:52:23.226Z,99869.55
2023-01-08T17:54:52.771Z,99869.89
2023-01-08T17:57:22.097Z,99874.08
2023-01-08T17:59:51.741Z,99871.34
2023-01-08T18:02:22.221Z,99869.42
2023-01-08T18:04:51.243Z,99859.98
2023-01-08T18:07:24.490Z,99852.16
2023-01-08T18:09:54.176Z,99844.52
2023-01-08T18:12:22.564Z,99837.66
2023-01-08T18:14:51.430Z,99836.59
2023-01-08T18:17:19.783Z,99832.17
2023-01-08T18:19:49.378Z,99823.61
2023-01-08T18:22:17.012Z,99829.08
2023-01-08T18:24:45.681Z,99831.10
2023-01-08T18:27:14.319Z,99834.09
2023-01-08T18:29:43.538Z,99829.29
2023-01-08T18:32:12.528Z,99831.35
2023-01-08T18:34:44.260Z,99829.80
2023-01-08T18:37:12.827Z,99829.13
2023-01-08T18:39:42.113Z,99827.80
2023-01-08T18:42:28.749Z,99833.88
2023-01-08T18:44:58.361Z,99844.93
2023-01-08T18:47:28.985Z,99842.03
2023-01-08T18:49:59.767Z,99848.08
2023-01-08T18:52:27.617Z,99853.58
2023-01-08T18:54:59.492Z,99854.20
2023-01-08T18:57:30.368Z,99851.77
2023-01-08T19:00:11.967Z,99847.09
2023-01-08T19:02:40.858Z,99839.48
2023-01-08T19:05:09.435Z,99833.36
2023-01-08T19:07:43.191Z,99835.23
2023-01-08T19:10:28.828Z,99836.65
2023-01-08T19:12:58.891Z,99832.90
2023-01-08T19:15:30.401Z,99829.04
2023-01-08T19:18:04.022Z,99831.98
2023-01-08T19:20:32.689Z,99826.40
2023-01-08T19:23:00.417Z,99823.52
2023-01-08T19:25:28.105Z,99825.23
2023-01-08T19:27:58.588Z,99822.27
2023-01-08T19:30:30.411Z,99818.19
2023-01-08T19:33:00.240Z,99818.25
2023-01-08T19:35:31.358Z,99821.59
2023-01-08T19:38:00.556Z,99823.42
2023-01-08T19:40:28.734Z,99824.74
2023-01-08T19:43:15.150Z,99824.58
2023-01-08T19:45:42.599Z,99828.57
2023-01-08T19:48:10.461Z,99828.82
2023-01-08T19:50:41.787Z,99838.77
2023-01-08T19:53:12.278Z,99846.89
2023-01-08T19:55:42.136Z,99849.21
2023-01-08T19:58:10.800Z,99851.73
2023-01-08T20:00:39.207Z,99845.22
2023-01-08T20:03:07.583Z,99842.86
2023-01-08T20:05:48.239Z,99844.15
2023-01-08T20:08:20.133Z,99841.56
2023-01-08T20:10:48.455Z,99841.39
2023-01-08T20:13:18.143Z,99835.84
2023-01-08T20:15:57.762Z,99839.23
2023-01-08T20:18:29.889Z,99839.41
2023-01-08T20:21:26.409Z,99831.73
2023-01-08T20:24:01.691Z,99832.39
2023-01-08T20:26:32.549Z,99827.30
2023-01-08T20:29:04.335Z,99820.21
2023-01-08T20:31:42.868Z,99809.96
2023-01-08T20:34:18.799Z,99793.02
2023-01-08T20:36:47.713Z,99776.38
2023-01-08T20:39:19.711Z,99769.21
2023-01-08T20:42:00.826Z,99766.15
2023-01-08T20:44:33.622Z,99759.13
2023-01-08T20:47:06.116Z,99754.02
2023-01-08T20:49:35.017Z,99752.61
2023-01-08T20:52:03.891Z,99748.84
2023-01-08T20:54:32.907Z,99738.33
2023-01-08T20:57:01.088Z,99725.56
2023-01-08T20:59:29.533Z,99716.58
2023-01-08T21:01:57.652Z,99711.19
2023-01-08T21:04:25.431Z,99706.10
2023-01-08T21:06:56.804Z,99707.42
2023-01-08T21:09:25.657Z,99706.30
2023-01-08T21:11:54.042Z,99703.06
2023-01-08T21:14:21.743Z,99695.00
2023-01-08T21:16:49.182Z,99691.12
2023-01-08T21:19:16.584Z,99686.73
2023-01-08T21:21:45.392Z,99680.39
2023-01-08T21:24:13.214Z,99683.92
2023-01-08T21:26:41.807Z,99680.48
2023-01-08T21:29:10.405Z,99673.67
2023-01-08T21:31:38.879Z,99669.80
2023-01-08T21:34:08.403Z,99667.46
2023-01-08T21:36:36.842Z,99666.73
2023-01-08T21:39:04.878Z,99666.02
2023-01-08T21:41:51.392Z,99661.31
2023-01-08T21:44:40.115Z,99660.23
2023-01-08T21:47:11.845Z,99654.12
2023-01-08T21:53:59.006Z,99647.72
2023-01-08T21:56:26.374Z,99648.19
2023-01-08T21:58:53.877Z,99641.52
2023-01-08T22:01:21.321Z,99643.28
2023-01-08T22:03:48.596Z,99639.69
2023-01-08T22:06:16.058Z,99631.68
2023-01-08T22:08:44.833Z,99631.52
2023-01-08T22:11:12.944Z,99627.73
2023-01-08T22:13:40.218Z,99625.80
2023-01-08T22:16:10.386Z,99626.05
2023-01-08T22:18:39.498Z,99623.80
2023-01-08T22:21:10.424Z,99619.44
2023-01-08T22:23:40.530Z,99621.52
2023-01-08T22:26:12.556Z,99622.13
2023-01-08T22:32:52.667Z,99617.63
2023-01-08T22:35:20.372Z,99616.60
2023-01-08T22:37:49.697Z,99619.21
2023-01-08T22:40:18.886Z,99620.48
2023-01-08T22:42:47.092Z,99621.52
2023-01-08T22:45:14.988Z,99618.20
2023-01-08T22:47:43.171Z,99612.23
2023-01-08T22:50:12.049Z,99610.48
2023-01-08T22:52:40.116Z,99607.42
2023-01-08T22:55:08.899Z,99602.31
2023-01-08T22:57:38.200Z,99600.52
2023-01-08T23:00:10.878Z,99599.43
2023-01-08T23:02:39.383Z,99596.45
2023-01-08T23:05:09.073Z,99588.31
2023-01-08T23:07:37.710Z,99586.12
2023-01-08T23:14:24.726Z,99554.30
2023-01-08T23:16:53.845Z,99543.70
2023-01-08T23:19:21.527Z,99546.61
2023-01-08T23:21:49.510Z,99545.21
2023-01-08T23:24:17.664Z,99538.05
2023-01-08T23:26:45.336Z,99526.80
2023-01-08T23:29:12.928Z,99521.02
2023-01-08T23:31:42.707Z,99524.04
2023-01-08T23:34:10.503Z,99521.92
2023-01-08T23:36:40.370Z,99523.49
2023-01-08T23:39:12.073Z,99525.89
2023-01-08T23:41:44.113Z,99522.45
2023-01-08T23:44:16.768Z,99519.73
2023-01-08T23:46:46.690Z,99516.55
2023-01-08T23:49:17.052Z,99512.53
2023-01-08T23:51:47.665Z,99503.43
2023-01-08T23:54:17.959Z,99491.91
2023-01-08T23:56:48.735Z,99487.75
